Time;durP1;ratioP1;P1;durP2;ratioP2;P2;SDS_P1;SDS_P2;PMS_P1;PMS_P2;Temp;Humidity;BMP_temperature;BMP_pressure;BME280_temperature;BME280_humidity;BME280_pressure;Samples;Min_cycle;Max_cycle;Signal;HPM_P1;HPM_P2
2021/03/29 00:01:09;;;;;;;;;;;15.90;34.90;;;;;;4951787;28;75386;-71
2021/03/29 00:03:35;;;;;;;;;;;15.90;34.70;;;;;;4951286;28;75838;-70
2021/03/29 00:06:01;;;;;;;;;;;15.90;34.90;;;;;;4951605;28;75203;-72
2021/03/29 00:08:27;;;;;;;;;;;15.80;35.10;;;;;;4951043;28;74520;-70
2021/03/29 00:10:54;;;;;;;;;;;15.80;35.40;;;;;;4951498;28;75740;-71
2021/03/29 00:13:20;;;;;;;;;;;15.70;35.50;;;;;;4950146;28;75405;-70
2021/03/29 00:15:48;;;;;;;;;;;15.70;35.40;;;;;;4950060;28;78084;-70
2021/03/29 00:18:14;;;;;;;;;;;15.60;35.70;;;;;;4951242;28;75315;-69
2021/03/29 00:20:42;;;;;;;;;;;15.60;35.70;;;;;;4951712;28;74388;-70
2021/03/29 00:23:08;;;;;;;;;;;15.50;35.70;;;;;;4952372;28;74537;-70
2021/03/29 00:25:34;;;;;;;;;;;15.50;35.80;;;;;;4951791;28;74534;-72
2021/03/29 00:28:00;;;;;;;;;;;15.40;35.80;;;;;;4949808;28;75480;-70
2021/03/29 00:30:34;;;;;;;;;;;15.40;36.10;;;;;;4948705;28;77815;-70
2021/03/29 00:33:00;;;;;;;;;;;15.40;36.10;;;;;;4949841;28;75435;-70
2021/03/29 00:35:26;;;;;;;;;;;15.40;36.20;;;;;;4949760;28;76440;-71
2021/03/29 00:37:53;;;;;;;;;;;15.30;36.50;;;;;;4950977;28;75601;-70
2021/03/29 00:40:19;;;;;;;;;;;15.30;36.50;;;;;;4949793;28;76965;-70
2021/03/29 00:42:46;;;;;;;;;;;15.20;36.70;;;;;;4949542;28;75650;-71
2021/03/29 00:45:13;;;;;;;;;;;15.20;36.90;;;;;;4949558;28;77604;-71
2021/03/29 00:47:39;;;;;;;;;;;15.10;36.60;;;;;;4950623;28;75309;-71
2021/03/29 00:50:11;;;;;;;;;;;15.10;36.90;;;;;;4951158;28;75095;-71
2021/03/29 00:52:38;;;;;;;;;;;15.20;37.00;;;;;;4949273;28;77647;-71
2021/03/29 00:55:05;;;;;;;;;;;15.10;36.90;;;;;;4950866;28;75189;-71
2021/03/29 00:57:31;;;;;;;;;;;15.00;37.30;;;;;;4949574;28;77736;-71
2021/03/29 00:59:57;;;;;;;;;;;15.00;37.40;;;;;;4949285;28;77178;-70
2021/03/29 01:02:23;;;;;;;;;;;14.90;37.60;;;;;;4951043;28;75121;-70
2021/03/29 01:04:49;;;;;;;;;;;14.80;37.70;;;;;;4949260;28;75340;-70
2021/03/29 01:07:15;;;;;;;;;;;14.80;38.90;;;;;;4949109;28;75152;-71
2021/03/29 01:09:40;;;;;;;;;;;14.70;39.10;;;;;;4949485;28;78494;-71
2021/03/29 01:12:07;;;;;;;;;;;14.60;39.50;;;;;;4950910;28;75165;-70
2021/03/29 01:14:35;;;;;;;;;;;14.60;40.50;;;;;;4949314;28;76503;-71
2021/03/29 01:17:19;;;;;;;;;;;14.60;40.50;;;;;;4950491;28;75702;-70
2021/03/29 01:20:03;;;;;;;;;;;14.50;40.20;;;;;;4949322;28;75410;-70
2021/03/29 01:22:31;;;;;;;;;;;14.40;41.60;;;;;;4948791;28;76739;-71
2021/03/29 01:25:15;;;;;;;;;;;14.30;42.00;;;;;;4950108;28;77146;-71
2021/03/29 01:27:43;;;;;;;;;;;14.30;41.20;;;;;;4950962;28;74617;-70
2021/03/29 01:30:09;;;;;;;;;;;14.20;41.70;;;;;;4948931;28;77289;-70
2021/03/29 01:32:37;;;;;;;;;;;14.10;42.60;;;;;;4950572;28;75199;-70
2021/03/29 01:35:06;;;;;;;;;;;14.00;42.20;;;;;;4949132;28;76899;-70
2021/03/29 01:37:32;;;;;;;;;;;14.00;43.90;;;;;;4950014;28;75461;-71
2021/03/29 01:39:58;;;;;;;;;;;13.90;43.90;;;;;;4950720;28;74487;-71
2021/03/29 01:42:24;;;;;;;;;;;13.80;43.60;;;;;;4949433;28;77740;-72
2021/03/29 01:44:50;;;;;;;;;;;13.70;44.20;;;;;;4955356;28;75311;-70
2021/03/29 01:47:15;;;;;;;;;;;13.60;43.50;;;;;;4958464;28;75454;-71
2021/03/29 01:49:42;;;;;;;;;;;13.60;43.90;;;;;;4948845;28;78281;-70
2021/03/29 01:52:09;;;;;;;;;;;13.60;43.70;;;;;;4950189;28;75210;-70
2021/03/29 01:54:35;;;;;;;;;;;13.50;45.00;;;;;;4948717;28;77351;-71
2021/03/29 01:57:10;;;;;;;;;;;13.40;44.20;;;;;;4948567;28;77150;-70
2021/03/29 01:59:36;;;;;;;;;;;13.40;45.50;;;;;;4948613;28;74671;-71
2021/03/29 02:02:03;;;;;;;;;;;13.40;45.40;;;;;;4950145;28;75302;-71
2021/03/29 02:04:29;;;;;;;;;;;13.30;45.20;;;;;;4948543;28;75396;-70
2021/03/29 02:06:55;;;;;;;;;;;13.20;44.80;;;;;;4950045;28;74988;-70
2021/03/29 02:09:21;;;;;;;;;;;13.30;44.80;;;;;;4948218;28;76762;-71
2021/03/29 02:11:47;;;;;;;;;;;13.30;45.30;;;;;;4948427;28;77972;-70
2021/03/29 02:14:13;;;;;;;;;;;13.20;44.70;;;;;;4949585;28;75264;-70
2021/03/29 02:16:39;;;;;;;;;;;13.30;44.60;;;;;;4948317;28;77993;-69
2021/03/29 02:19:06;;;;;;;;;;;13.30;44.60;;;;;;4949668;28;74935;-72
2021/03/29 02:21:37;;;;;;;;;;;13.30;44.90;;;;;;4950382;28;74706;-71
2021/03/29 02:24:03;;;;;;;;;;;13.30;44.70;;;;;;4949754;28;75221;-71
2021/03/29 02:26:30;;;;;;;;;;;13.30;44.60;;;;;;4949712;28;75078;-69
2021/03/29 02:28:56;;;;;;;;;;;13.40;44.50;;;;;;4948340;28;77133;-71
2021/03/29 02:31:24;;;;;;;;;;;13.30;44.70;;;;;;4947846;28;75501;-70
2021/03/29 02:33:50;;;;;;;;;;;13.40;44.80;;;;;;4949805;28;75385;-70
2021/03/29 02:36:16;;;;;;;;;;;13.40;44.90;;;;;;4949441;28;75312;-70
2021/03/29 02:38:42;;;;;;;;;;;13.40;45.00;;;;;;4947898;28;76451;-71
2021/03/29 02:41:08;;;;;;;;;;;13.40;45.20;;;;;;4948033;28;75672;-71
2021/03/29 02:43:34;;;;;;;;;;;13.30;45.10;;;;;;4948062;28;75735;-70
2021/03/29 02:46:02;;;;;;;;;;;13.30;45.20;;;;;;4947838;28;75814;-70
2021/03/29 02:48:30;;;;;;;;;;;13.30;45.30;;;;;;4948729;28;75080;-70
2021/03/29 02:50:56;;;;;;;;;;;13.20;45.40;;;;;;4949618;28;75576;-71
2021/03/29 02:53:27;;;;;;;;;;;13.20;46.50;;;;;;4951523;28;74557;-72
2021/03/29 02:55:53;;;;;;;;;;;13.20;45.30;;;;;;4951002;28;76490;-71
2021/03/29 02:58:23;;;;;;;;;;;13.20;45.30;;;;;;4950533;28;76507;-72
2021/03/29 03:00:49;;;;;;;;;;;13.20;45.60;;;;;;4952533;28;74537;-73
2021/03/29 03:03:15;;;;;;;;;;;13.30;45.50;;;;;;4953059;28;75242;-69
2021/03/29 03:05:43;;;;;;;;;;;13.20;45.50;;;;;;4952493;28;75854;-71
2021/03/29 03:08:08;;;;;;;;;;;13.20;45.70;;;;;;4952678;28;74401;-71
2021/03/29 03:10:35;;;;;;;;;;;13.20;45.80;;;;;;4950682;28;76932;-71
2021/03/29 03:13:05;;;;;;;;;;;13.20;45.90;;;;;;4950773;28;75917;-71
2021/03/29 03:15:31;;;;;;;;;;;13.20;45.80;;;;;;4949837;28;74686;-71
2021/03/29 03:17:58;;;;;;;;;;;13.20;45.90;;;;;;4950212;28;75566;-70
2021/03/29 03:20:25;;;;;;;;;;;13.20;46.30;;;;;;4950921;28;75578;-70
2021/03/29 03:22:50;;;;;;;;;;;13.20;46.20;;;;;;4951861;28;75171;-71
2021/03/29 03:25:20;;;;;;;;;;;13.10;46.40;;;;;;4952063;28;75623;-71
2021/03/29 03:27:46;;;;;;;;;;;13.00;46.70;;;;;;4951991;28;75408;-71
2021/03/29 03:30:16;;;;;;;;;;;12.90;46.70;;;;;;4952039;28;75194;-71
2021/03/29 03:32:41;;;;;;;;;;;12.90;46.90;;;;;;4952046;28;75275;-71
2021/03/29 03:35:07;;;;;;;;;;;12.80;47.40;;;;;;4952606;28;75709;-72
2021/03/29 03:37:33;;;;;;;;;;;12.80;46.90;;;;;;4952766;28;74923;-71
2021/03/29 03:39:59;;;;;;;;;;;12.80;46.90;;;;;;4957192;28;75211;-71
2021/03/29 03:42:24;;;;;;;;;;;12.80;46.90;;;;;;4955565;28;74722;-71
2021/03/29 03:44:50;;;;;;;;;;;12.80;46.90;;;;;;4952997;28;74873;-72
2021/03/29 03:47:16;;;;;;;;;;;12.70;47.80;;;;;;4951481;28;75190;-69
2021/03/29 03:49:43;;;;;;;;;;;12.60;48.00;;;;;;4950220;28;75390;-71
2021/03/29 03:52:09;;;;;;;;;;;12.50;47.50;;;;;;4951685;28;75309;-72
2021/03/29 03:54:34;;;;;;;;;;;12.50;47.40;;;;;;4951729;28;75222;-73
2021/03/29 03:57:00;;;;;;;;;;;12.50;47.50;;;;;;4949745;28;75661;-72
2021/03/29 03:59:25;;;;;;;;;;;12.50;47.50;;;;;;4951919;28;74620;-71
2021/03/29 04:01:51;;;;;;;;;;;12.40;47.70;;;;;;4949997;28;75353;-73
2021/03/29 04:04:17;;;;;;;;;;;12.40;48.50;;;;;;4949148;28;75288;-70
2021/03/29 04:06:42;;;;;;;;;;;12.40;48.00;;;;;;4949983;28;77180;-70
2021/03/29 04:09:08;;;;;;;;;;;12.40;49.00;;;;;;4950160;28;78389;-70
2021/03/29 04:11:36;;;;;;;;;;;12.30;48.60;;;;;;4951744;28;74888;-70
2021/03/29 04:14:01;;;;;;;;;;;12.20;48.80;;;;;;4951992;28;74672;-73
2021/03/29 04:16:27;;;;;;;;;;;12.20;49.10;;;;;;4951601;28;75221;-72
2021/03/29 04:18:53;;;;;;;;;;;12.20;48.90;;;;;;4951446;28;75201;-73
2021/03/29 04:21:18;;;;;;;;;;;12.20;48.50;;;;;;4949913;28;74487;-73
2021/03/29 04:23:44;;;;;;;;;;;12.20;48.70;;;;;;4949980;28;77586;-73
2021/03/29 04:26:09;;;;;;;;;;;12.20;48.50;;;;;;4949897;28;75275;-70
2021/03/29 04:28:35;;;;;;;;;;;12.20;48.30;;;;;;4951111;28;76148;-71
2021/03/29 04:31:01;;;;;;;;;;;12.20;48.30;;;;;;4951538;28;75276;-71
2021/03/29 04:33:26;;;;;;;;;;;12.20;48.40;;;;;;4951460;28;75296;-71
2021/03/29 04:35:52;;;;;;;;;;;12.20;48.30;;;;;;4951939;28;74431;-71
2021/03/29 04:38:17;;;;;;;;;;;12.20;48.20;;;;;;4951406;28;75118;-70
2021/03/29 04:40:43;;;;;;;;;;;12.20;48.40;;;;;;4951554;28;75351;-69
2021/03/29 04:43:09;;;;;;;;;;;12.20;48.30;;;;;;4951428;28;74531;-70
2021/03/29 04:45:34;;;;;;;;;;;12.20;48.40;;;;;;4951565;28;75325;-70
2021/03/29 04:48:00;;;;;;;;;;;12.20;48.20;;;;;;4951399;28;75177;-72
2021/03/29 04:50:25;;;;;;;;;;;12.10;48.50;;;;;;4949474;28;77223;-70
2021/03/29 04:52:51;;;;;;;;;;;12.10;48.70;;;;;;4949761;28;78604;-70
2021/03/29 04:55:18;;;;;;;;;;;12.10;48.30;;;;;;4951042;28;74991;-70
2021/03/29 04:57:43;;;;;;;;;;;12.10;48.30;;;;;;4949690;28;78646;-70
2021/03/29 05:00:10;;;;;;;;;;;12.10;49.20;;;;;;4949237;28;79427;-72
2021/03/29 05:02:36;;;;;;;;;;;12.00;49.40;;;;;;4951254;28;75260;-70
2021/03/29 05:05:02;;;;;;;;;;;11.90;49.00;;;;;;4951078;28;75336;-71
2021/03/29 05:07:27;;;;;;;;;;;11.90;49.50;;;;;;4949470;28;78435;-72
2021/03/29 05:09:53;;;;;;;;;;;11.90;49.30;;;;;;4950968;28;75601;-71
2021/03/29 05:12:22;;;;;;;;;;;11.90;49.10;;;;;;4951143;28;74952;-73
2021/03/29 05:14:48;;;;;;;;;;;11.90;49.00;;;;;;4950956;28;75054;-72
2021/03/29 05:17:13;;;;;;;;;;;11.90;48.70;;;;;;4948673;28;78287;-63
2021/03/29 05:19:39;;;;;;;;;;;12.00;48.70;;;;;;4950854;28;76800;-63
2021/03/29 05:22:08;;;;;;;;;;;12.00;48.50;;;;;;4951105;28;75229;-71
2021/03/29 05:24:34;;;;;;;;;;;12.00;48.60;;;;;;4950425;28;76137;-63
2021/03/29 05:27:00;;;;;;;;;;;12.10;48.30;;;;;;4950834;28;75120;-62
2021/03/29 05:29:40;;;;;;;;;;;12.20;48.30;;;;;;4950809;28;74927;-61
2021/03/29 05:32:10;;;;;;;;;;;12.20;48.20;;;;;;4949132;28;74742;-62
2021/03/29 05:34:36;;;;;;;;;;;12.20;48.40;;;;;;4950863;28;75229;-61
2021/03/29 05:37:01;;;;;;;;;;;12.20;48.30;;;;;;4950942;28;75575;-62
2021/03/29 05:39:27;;;;;;;;;;;12.20;48.60;;;;;;4948958;28;76717;-61
2021/03/29 05:41:53;;;;;;;;;;;12.10;48.90;;;;;;4950169;28;75099;-62
2021/03/29 05:44:19;;;;;;;;;;;12.00;49.40;;;;;;4950644;28;74498;-62
2021/03/29 05:46:45;;;;;;;;;;;11.90;49.90;;;;;;4948428;28;76292;-61
2021/03/29 05:49:10;;;;;;;;;;;11.90;50.30;;;;;;4950263;28;75843;-62
2021/03/29 05:51:37;;;;;;;;;;;11.70;49.90;;;;;;4948933;28;77625;-62
2021/03/29 05:54:03;;;;;;;;;;;11.80;50.20;;;;;;4950386;28;75730;-64
2021/03/29 05:56:31;;;;;;;;;;;11.80;49.80;;;;;;4948579;28;77744;-61
2021/03/29 05:59:09;;;;;;;;;;;11.80;49.90;;;;;;4949638;28;75722;-62
2021/03/29 06:01:44;;;;;;;;;;;11.90;49.80;;;;;;4948762;28;76347;-61
2021/03/29 06:04:10;;;;;;;;;;;11.90;49.90;;;;;;4948480;28;77358;-61
2021/03/29 06:06:35;;;;;;;;;;;11.80;49.90;;;;;;4948446;28;74774;-62
2021/03/29 06:09:02;;;;;;;;;;;11.80;49.90;;;;;;4948292;28;77625;-61
2021/03/29 06:11:32;;;;;;;;;;;11.80;49.90;;;;;;4948327;28;77322;-61
2021/03/29 06:14:17;;;;;;;;;;;11.80;50.00;;;;;;4950390;28;75213;-62
2021/03/29 06:16:57;;;;;;;;;;;11.80;50.00;;;;;;4948246;28;75331;-62
2021/03/29 06:19:34;;;;;;;;;;;11.80;51.00;;;;;;4950006;28;75376;-62
2021/03/29 06:22:26;;;;;;;;;;;11.70;51.10;;;;;;4948089;28;76490;-62
2021/03/29 06:24:52;;;;;;;;;;;11.70;51.00;;;;;;4947594;28;75447;-61
2021/03/29 06:27:18;;;;;;;;;;;11.70;50.60;;;;;;4948466;28;75687;-62
2021/03/29 06:29:44;;;;;;;;;;;11.70;50.40;;;;;;4952430;28;75027;-62
2021/03/29 06:32:10;;;;;;;;;;;11.80;50.50;;;;;;4952148;28;75708;-61
2021/03/29 06:34:35;;;;;;;;;;;11.80;50.60;;;;;;4953177;28;74508;-62
2021/03/29 06:37:08;;;;;;;;;;;11.90;50.40;;;;;;4952198;28;75188;-62
2021/03/29 06:39:37;;;;;;;;;;;11.90;51.60;;;;;;4950429;28;74856;-61
2021/03/29 06:42:03;;;;;;;;;;;11.90;50.60;;;;;;4952459;28;74686;-62
2021/03/29 06:44:30;;;;;;;;;;;11.90;50.60;;;;;;4952147;28;75138;-62
2021/03/29 06:47:15;;;;;;;;;;;11.90;50.90;;;;;;4952373;28;74462;-62
2021/03/29 06:49:48;;;;;;;;;;;11.90;50.90;;;;;;4951934;28;75354;-61
2021/03/29 06:52:20;;;;;;;;;;;11.90;50.60;;;;;;4952658;28;74327;-61
2021/03/29 06:54:46;;;;;;;;;;;11.90;50.90;;;;;;4950330;28;76864;-62
2021/03/29 06:57:11;;;;;;;;;;;11.90;50.60;;;;;;4952532;28;74485;-62
2021/03/29 06:59:37;;;;;;;;;;;11.90;50.80;;;;;;4952451;28;74473;-62
2021/03/29 07:02:07;;;;;;;;;;;12.00;50.80;;;;;;4950641;28;76628;-62
2021/03/29 07:04:34;;;;;;;;;;;12.00;50.70;;;;;;4952243;28;75266;-62
2021/03/29 07:07:00;;;;;;;;;;;12.00;51.00;;;;;;4951731;28;74976;-61
2021/03/29 07:09:29;;;;;;;;;;;12.00;50.90;;;;;;4952070;28;74481;-62
2021/03/29 07:11:56;;;;;;;;;;;11.90;50.70;;;;;;4951726;28;74445;-65
2021/03/29 07:14:22;;;;;;;;;;;12.00;50.30;;;;;;4950242;28;76169;-64
2021/03/29 07:16:48;;;;;;;;;;;12.20;50.00;;;;;;4952186;28;74447;-68
2021/03/29 07:19:13;;;;;;;;;;;12.20;49.90;;;;;;4951904;28;75158;-65
2021/03/29 07:21:39;;;;;;;;;;;12.30;49.70;;;;;;4950676;28;75323;-62
2021/03/29 07:24:09;;;;;;;;;;;12.40;49.40;;;;;;4952084;28;75173;-62
2021/03/29 07:26:46;;;;;;;;;;;12.60;49.10;;;;;;4951404;28;75240;-63
2021/03/29 07:29:17;;;;;;;;;;;12.70;48.80;;;;;;4951960;28;75097;-69
2021/03/29 07:31:42;;;;;;;;;;;12.90;48.60;;;;;;4958494;28;75832;-65
2021/03/29 07:34:09;;;;;;;;;;;12.90;49.20;;;;;;4952382;28;74985;-62
2021/03/29 07:36:42;;;;;;;;;;;13.00;48.40;;;;;;4949951;28;76165;-63
2021/03/29 07:39:08;;;;;;;;;;;13.00;48.60;;;;;;4951940;28;75159;-69
2021/03/29 07:41:34;;;;;;;;;;;13.10;48.30;;;;;;4953156;28;75123;-66
2021/03/29 07:44:16;;;;;;;;;;;13.10;48.00;;;;;;4951928;28;75145;-64
2021/03/29 07:46:43;;;;;;;;;;;13.20;47.90;;;;;;4951260;28;75200;-67
2021/03/29 07:49:28;;;;;;;;;;;13.40;47.40;;;;;;4951439;28;75023;-64
2021/03/29 07:52:12;;;;;;;;;;;13.50;46.50;;;;;;4949882;28;77550;-61
2021/03/29 07:54:50;;;;;;;;;;;13.60;45.30;;;;;;4951304;28;75150;-63
2021/03/29 07:57:36;;;;;;;;;;;13.70;44.60;;;;;;4951555;28;75226;-62
2021/03/29 08:00:02;;;;;;;;;;;13.80;44.00;;;;;;4950856;28;75165;-64
2021/03/29 08:02:33;;;;;;;;;;;13.90;43.20;;;;;;4951457;28;74944;-72
2021/03/29 08:05:06;;;;;;;;;;;14.00;42.80;;;;;;4951479;28;75291;-62
2021/03/29 08:07:38;;;;;;;;;;;14.10;42.40;;;;;;4949423;28;76648;-62
2021/03/29 08:10:05;;;;;;;;;;;14.20;41.90;;;;;;4949502;28;77565;-62
2021/03/29 08:12:32;;;;;;;;;;;14.30;41.80;;;;;;4951620;28;75948;-61
2021/03/29 08:14:58;;;;;;;;;;;14.40;41.40;;;;;;4951278;28;75714;-63
2021/03/29 08:17:37;;;;;;;;;;;14.40;41.40;;;;;;4951316;28;75472;-62
2021/03/29 08:20:07;;;;;;;;;;;14.50;41.60;;;;;;4951641;28;75571;-62
2021/03/29 08:22:32;;;;;;;;;;;14.70;41.00;;;;;;4950959;28;74784;-62
2021/03/29 08:24:58;;;;;;;;;;;14.80;40.80;;;;;;4951513;28;74407;-62
2021/03/29 08:27:26;;;;;;;;;;;14.90;40.40;;;;;;4950946;28;75749;-61
2021/03/29 08:29:56;;;;;;;;;;;15.00;40.10;;;;;;4951096;28;75667;-60
2021/03/29 08:32:29;;;;;;;;;;;15.30;39.40;;;;;;4949419;28;74479;-64
2021/03/29 08:35:01;;;;;;;;;;;15.40;39.00;;;;;;4949365;28;74699;-66
2021/03/29 08:37:34;;;;;;;;;;;15.50;38.70;;;;;;4950959;28;75206;-63
2021/03/29 08:40:00;;;;;;;;;;;15.70;38.70;;;;;;4950767;28;75210;-61
2021/03/29 08:42:28;;;;;;;;;;;15.80;38.40;;;;;;4950742;28;75234;-63
2021/03/29 08:44:54;;;;;;;;;;;15.90;38.10;;;;;;4950866;28;74345;-63
2021/03/29 08:47:24;;;;;;;;;;;16.00;37.90;;;;;;4950724;28;74950;-61
2021/03/29 08:49:51;;;;;;;;;;;16.10;37.60;;;;;;4948608;28;76456;-61
2021/03/29 08:52:16;;;;;;;;;;;16.30;37.20;;;;;;4948817;28;76759;-61
2021/03/29 08:54:46;;;;;;;;;;;16.40;37.10;;;;;;4950976;28;74348;-61
2021/03/29 08:57:12;;;;;;;;;;;16.50;37.20;;;;;;4949190;28;76342;-64
2021/03/29 08:59:38;;;;;;;;;;;16.70;36.70;;;;;;4950531;28;75758;-61
2021/03/29 09:02:13;;;;;;;;;;;16.90;35.80;;;;;;4950679;28;75456;-61
2021/03/29 09:04:48;;;;;;;;;;;16.90;35.60;;;;;;4949191;28;75431;-61
2021/03/29 09:07:14;;;;;;;;;;;17.10;36.00;;;;;;4950353;28;75198;-61
2021/03/29 09:09:40;;;;;;;;;;;17.20;35.10;;;;;;4949036;28;76292;-61
2021/03/29 09:12:06;;;;;;;;;;;17.30;35.10;;;;;;4950352;28;75218;-61
2021/03/29 09:14:34;;;;;;;;;;;17.40;35.10;;;;;;4948860;28;77044;-65
2021/03/29 09:17:01;;;;;;;;;;;17.50;34.60;;;;;;4950353;28;75412;-62
2021/03/29 09:19:27;;;;;;;;;;;17.60;34.80;;;;;;4950311;28;75339;-62
2021/03/29 09:21:59;;;;;;;;;;;17.70;35.10;;;;;;4950352;28;75090;-62
2021/03/29 09:24:26;;;;;;;;;;;17.90;34.50;;;;;;4950337;28;75226;-64
2021/03/29 09:27:12;;;;;;;;;;;18.00;33.90;;;;;;4950117;28;77930;-61
2021/03/29 09:29:41;;;;;;;;;;;18.20;34.20;;;;;;4950823;28;74418;-65
2021/03/29 09:32:17;;;;;;;;;;;18.30;33.80;;;;;;4950728;28;74381;-62
2021/03/29 09:34:44;;;;;;;;;;;18.50;33.00;;;;;;4950778;28;74535;-62
2021/03/29 09:37:23;;;;;;;;;;;18.60;33.80;;;;;;4949866;28;75283;-66
2021/03/29 09:40:03;;;;;;;;;;;18.70;33.20;;;;;;4950251;28;75261;-62
2021/03/29 09:42:57;;;;;;;;;;;18.90;33.30;;;;;;4949768;28;75565;-62
2021/03/29 09:45:24;;;;;;;;;;;19.00;32.90;;;;;;4950192;28;75104;-63
2021/03/29 09:48:03;;;;;;;;;;;19.20;33.00;;;;;;4949798;28;75229;-62
2021/03/29 09:50:34;;;;;;;;;;;19.40;32.60;;;;;;4950097;28;75043;-62
2021/03/29 09:53:08;;;;;;;;;;;19.50;32.20;;;;;;4949790;28;75091;-62
2021/03/29 09:55:41;;;;;;;;;;;19.70;32.10;;;;;;4950071;28;75173;-61
2021/03/29 09:58:16;;;;;;;;;;;19.90;32.10;;;;;;4949521;28;75220;-63
2021/03/29 10:00:42;;;;;;;;;;;19.90;31.30;;;;;;4949758;28;74373;-62
2021/03/29 10:03:07;;;;;;;;;;;19.90;31.50;;;;;;4951285;28;75222;-62
2021/03/29 10:05:34;;;;;;;;;;;20.00;31.70;;;;;;4952473;28;75289;-63
2021/03/29 10:08:00;;;;;;;;;;;20.30;31.70;;;;;;4952555;28;75226;-63
2021/03/29 10:10:28;;;;;;;;;;;20.60;30.80;;;;;;4952649;28;75117;-62
2021/03/29 10:13:19;;;;;;;;;;;20.70;31.40;;;;;;4953039;28;74508;-62
2021/03/29 10:15:45;;;;;;;;;;;21.00;30.60;;;;;;4950365;28;76841;-62
2021/03/29 10:18:12;;;;;;;;;;;21.20;30.30;;;;;;4952433;28;75063;-62
2021/03/29 10:20:39;;;;;;;;;;;21.40;30.60;;;;;;4952879;28;74607;-62
2021/03/29 10:23:23;;;;;;;;;;;21.60;30.40;;;;;;4952423;28;75286;-63
2021/03/29 10:26:07;;;;;;;;;;;21.60;30.10;;;;;;4952917;28;74419;-62
2021/03/29 10:28:33;;;;;;;;;;;21.70;29.70;;;;;;4951870;28;75255;-63
2021/03/29 10:30:58;;;;;;;;;;;21.90;29.50;;;;;;4952426;28;75507;-69
2021/03/29 10:33:24;;;;;;;;;;;22.10;29.60;;;;;;4950702;28;76893;-69
2021/03/29 10:35:51;;;;;;;;;;;22.40;29.10;;;;;;4952328;28;74962;-68
2021/03/29 10:38:16;;;;;;;;;;;22.70;28.80;;;;;;4952130;28;75214;-65
2021/03/29 10:40:42;;;;;;;;;;;23.00;28.70;;;;;;4952015;28;75338;-67
2021/03/29 10:43:09;;;;;;;;;;;23.30;28.10;;;;;;4950715;28;78248;-66
2021/03/29 10:45:34;;;;;;;;;;;23.50;27.70;;;;;;4952291;28;75144;-62
2021/03/29 10:48:00;;;;;;;;;;;23.80;27.80;;;;;;4952271;28;75131;-63
2021/03/29 10:50:25;;;;;;;;;;;24.00;27.20;;;;;;4952080;28;75756;-66
2021/03/29 10:52:51;;;;;;;;;;;24.10;26.80;;;;;;4952204;28;75762;-62
2021/03/29 10:55:17;;;;;;;;;;;24.20;27.20;;;;;;4950667;28;76993;-62
2021/03/29 10:57:42;;;;;;;;;;;24.60;26.70;;;;;;4951920;28;75168;-63
2021/03/29 11:00:09;;;;;;;;;;;25.30;26.30;;;;;;4951769;28;74588;-62
2021/03/29 11:02:36;;;;;;;;;;;25.90;25.60;;;;;;4950754;28;76838;-65
2021/03/29 11:05:02;;;;;;;;;;;26.40;25.30;;;;;;4952336;28;75203;-64
2021/03/29 11:07:27;;;;;;;;;;;26.90;24.90;;;;;;4952102;28;74418;-66
2021/03/29 11:09:53;;;;;;;;;;;27.40;24.20;;;;;;4950363;28;78040;-63
2021/03/29 11:12:18;;;;;;;;;;;28.00;23.90;;;;;;4952328;28;75881;-65
2021/03/29 11:14:44;;;;;;;;;;;28.40;23.40;;;;;;4951561;28;75142;-63
2021/03/29 11:17:11;;;;;;;;;;;28.80;23.10;;;;;;4952128;28;75309;-65
2021/03/29 11:19:36;;;;;;;;;;;29.00;22.90;;;;;;4951936;28;75283;-62
2021/03/29 11:22:02;;;;;;;;;;;29.20;22.60;;;;;;4952660;28;75175;-62
2021/03/29 11:24:27;;;;;;;;;;;29.20;22.90;;;;;;4952511;28;75203;-62
2021/03/29 11:26:53;;;;;;;;;;;28.90;23.00;;;;;;4950173;28;76930;-64
2021/03/29 11:29:19;;;;;;;;;;;28.50;22.90;;;;;;4950287;28;77140;-64
2021/03/29 11:31:44;;;;;;;;;;;28.10;23.40;;;;;;4951935;28;75369;-65
2021/03/29 11:34:11;;;;;;;;;;;28.40;23.80;;;;;;4950125;28;78400;-69
2021/03/29 11:36:37;;;;;;;;;;;28.70;23.20;;;;;;4950107;28;77950;-63
2021/03/29 11:39:06;;;;;;;;;;;29.70;22.60;;;;;;4952297;28;74424;-62
2021/03/29 11:41:32;;;;;;;;;;;30.00;21.50;;;;;;4951775;28;75274;-61
2021/03/29 11:43:57;;;;;;;;;;;29.40;22.10;;;;;;4951407;28;75214;-62
2021/03/29 11:46:23;;;;;;;;;;;29.00;22.50;;;;;;4951374;28;75000;-62
2021/03/29 11:48:49;;;;;;;;;;;28.90;22.70;;;;;;4949815;28;77573;-62
2021/03/29 11:51:14;;;;;;;;;;;29.20;22.80;;;;;;4952016;28;74426;-65
2021/03/29 11:53:40;;;;;;;;;;;29.60;22.10;;;;;;4949376;28;77464;-65
2021/03/29 11:56:06;;;;;;;;;;;30.10;21.50;;;;;;4949762;28;77171;-65
2021/03/29 11:58:32;;;;;;;;;;;30.90;21.40;;;;;;4949509;28;77054;-67
2021/03/29 12:01:05;;;;;;;;;;;31.70;19.10;;;;;;4949902;28;77004;-63
2021/03/29 12:03:39;;;;;;;;;;;32.50;19.50;;;;;;4950599;28;74506;-63
2021/03/29 12:06:13;;;;;;;;;;;33.60;19.20;;;;;;4951165;28;75171;-67
2021/03/29 12:13:56;;;;;;;;;;;33.90;18.00;;;;;;4951396;28;74955;-63
2021/03/29 12:16:24;;;;;;;;;;;33.00;18.90;;;;;;4951026;28;75166;-65
2021/03/29 12:18:51;;;;;;;;;;;33.50;18.70;;;;;;4951223;28;75754;-65
2021/03/29 12:21:21;;;;;;;;;;;34.40;18.20;;;;;;4949839;28;74449;-62
2021/03/29 12:23:49;;;;;;;;;;;35.80;17.50;;;;;;4951052;28;75577;-67
2021/03/29 12:26:15;;;;;;;;;;;37.00;17.10;;;;;;4949621;28;75100;-64
2021/03/29 12:28:45;;;;;;;;;;;36.00;17.30;;;;;;4950856;28;75195;-62
2021/03/29 12:31:11;;;;;;;;;;;34.60;18.30;;;;;;4949685;28;76895;-63
2021/03/29 12:33:37;;;;;;;;;;;33.40;19.10;;;;;;4951329;28;75071;-63
2021/03/29 12:36:03;;;;;;;;;;;32.30;19.60;;;;;;4948880;28;77072;-63
2021/03/29 12:38:32;;;;;;;;;;;31.50;20.50;;;;;;4950882;28;75856;-63
2021/03/29 12:40:59;;;;;;;;;;;31.30;20.50;;;;;;4951068;28;74398;-63
2021/03/29 12:43:34;;;;;;;;;;;31.40;20.60;;;;;;4950897;28;75432;-63
2021/03/29 12:46:03;;;;;;;;;;;31.30;20.70;;;;;;4950832;28;74636;-64
2021/03/29 12:48:29;;;;;;;;;;;31.00;20.60;;;;;;4950912;28;75225;-63
2021/03/29 12:50:58;;;;;;;;;;;30.60;21.00;;;;;;4950775;28;75124;-63
2021/03/29 12:53:24;;;;;;;;;;;30.30;18.90;;;;;;4950930;28;74546;-63
2021/03/29 12:55:50;;;;;;;;;;;29.80;20.70;;;;;;4951048;28;75055;-63
2021/03/29 12:58:17;;;;;;;;;;;29.70;21.10;;;;;;4950374;28;75570;-66
2021/03/29 13:00:43;;;;;;;;;;;29.70;20.70;;;;;;4951365;28;74506;-62
2021/03/29 13:03:10;;;;;;;;;;;29.70;21.10;;;;;;4949396;28;75363;-63
2021/03/29 13:05:46;;;;;;;;;;;29.70;21.00;;;;;;4951134;28;74418;-69
2021/03/29 13:08:16;;;;;;;;;;;30.30;20.00;;;;;;4949025;28;77260;-65
2021/03/29 13:13:26;;;;;;;;;;;32.70;18.60;;;;;;4947983;28;75315;-65
2021/03/29 13:15:52;;;;;;;;;;;33.90;18.00;;;;;;4950684;28;75539;-66
2021/03/29 13:18:19;;;;;;;;;;;35.00;17.20;;;;;;4953901;28;75652;-62
2021/03/29 13:20:44;;;;;;;;;;;36.50;15.70;;;;;;4949476;28;77865;-63
2021/03/29 13:23:10;;;;;;;;;;;38.20;15.40;;;;;;4951081;28;74415;-68
2021/03/29 13:25:36;;;;;;;;;;;38.90;14.70;;;;;;4948863;28;76833;-62
2021/03/29 13:28:03;;;;;;;;;;;38.20;12.80;;;;;;4950987;28;74550;-67
2021/03/29 13:30:30;;;;;;;;;;;36.40;14.70;;;;;;4949101;28;75595;-67
2021/03/29 13:32:56;;;;;;;;;;;34.70;16.40;;;;;;4948753;28;75435;-63
2021/03/29 13:35:23;;;;;;;;;;;33.50;17.20;;;;;;4950259;28;75149;-63
2021/03/29 13:37:48;;;;;;;;;;;33.40;17.80;;;;;;4950047;28;75066;-63
2021/03/29 13:40:15;;;;;;;;;;;35.00;17.50;;;;;;4950672;28;74996;-68
2021/03/29 13:42:45;;;;;;;;;;;36.00;16.00;;;;;;4949540;28;75251;-63
2021/03/29 13:45:11;;;;;;;;;;;36.20;16.10;;;;;;4950589;28;74561;-66
2021/03/29 13:47:37;;;;;;;;;;;34.70;16.40;;;;;;4950128;28;75115;-71
2021/03/29 13:50:04;;;;;;;;;;;33.50;17.40;;;;;;4949807;28;74963;-62
2021/03/29 13:52:33;;;;;;;;;;;32.50;18.30;;;;;;4950573;28;75266;-63
2021/03/29 13:54:59;;;;;;;;;;;32.30;18.10;;;;;;4950319;28;74456;-61
2021/03/29 13:57:24;;;;;;;;;;;33.10;16.90;;;;;;4948684;28;76346;-62
2021/03/29 13:59:50;;;;;;;;;;;33.70;17.60;;;;;;4950425;28;75086;-64
2021/03/29 14:02:16;;;;;;;;;;;34.30;17.20;;;;;;4948474;28;77191;-62
2021/03/29 14:04:42;;;;;;;;;;;35.60;14.80;;;;;;4950261;28;75319;-62
2021/03/29 14:07:08;;;;;;;;;;;36.30;15.40;;;;;;4950267;28;74395;-62
2021/03/29 14:09:34;;;;;;;;;;;36.90;15.40;;;;;;4950572;28;74420;-65
2021/03/29 14:12:00;;;;;;;;;;;36.70;15.40;;;;;;4950154;28;75184;-65
2021/03/29 14:14:26;;;;;;;;;;;36.20;15.20;;;;;;4948478;28;77412;-62
2021/03/29 14:16:52;;;;;;;;;;;35.40;15.30;;;;;;4948246;28;76337;-63
2021/03/29 14:19:19;;;;;;;;;;;34.60;16.40;;;;;;4948142;28;77569;-67
2021/03/29 14:21:53;;;;;;;;;;;34.10;16.80;;;;;;4948424;28;76276;-65
2021/03/29 14:24:19;;;;;;;;;;;33.90;17.10;;;;;;4949770;28;74519;-63
2021/03/29 14:26:45;;;;;;;;;;;33.80;17.30;;;;;;4950057;28;75634;-63
2021/03/29 14:29:10;;;;;;;;;;;33.60;17.40;;;;;;4949627;28;74824;-65